Time;durP1;ratioP1;P1;durP2;ratioP2;P2;SDS_P1;SDS_P2;PMS_P1;PMS_P2;Temp;Humidity;BMP_temperature;BMP_pressure;BME280_temperature;BME280_humidity;BME280_pressure;Samples;Min_cycle;Max_cycle;Signal;HPM_P1;HPM_P2
2023/08/19 00:01:35;;;;;;;3.03;1.80;;;21.40;99.90;;;21.48;100.00;97148.50;5039567;28;20466;-37
2023/08/19 00:04:00;;;;;;;5.20;2.00;;;21.40;99.90;;;;;;5041708;28;20086;-36
2023/08/19 00:06:39;;;;;;;2.47;1.67;;;21.40;99.90;;;21.43;100.00;97156.06;5038872;28;20444;-36
2023/08/19 00:09:08;;;;;;;4.25;1.70;;;21.30;99.90;;;21.38;100.00;97148.41;5034110;28;20044;-37
2023/08/19 00:11:35;;;;;;;3.70;1.90;;;21.30;99.90;;;21.32;100.00;97148.94;5037440;28;20072;-38
2023/08/19 00:14:05;;;;;;;3.90;1.95;;;21.20;99.90;;;21.27;100.00;97151.16;5030386;28;20037;-37
2023/08/19 00:16:33;;;;;;;2.35;1.92;;;21.20;99.90;;;21.21;100.00;97147.16;5030281;28;20035;-37
2023/08/19 00:18:59;;;;;;;4.40;1.90;;;21.10;99.90;;;21.15;100.00;97151.19;5032720;28;20025;-37
2023/08/19 00:21:25;;;;;;;4.50;1.90;;;21.00;99.90;;;21.12;100.00;97140.75;5032184;28;20031;-36
2023/08/19 00:23:50;;;;;;;3.30;1.83;;;21.00;99.90;;;21.06;100.00;97145.75;5029754;28;20401;-36
2023/08/19 00:26:16;;;;;;;3.10;1.80;;;20.90;99.90;;;20.98;100.00;97139.22;5031297;28;20447;-36
2023/08/19 00:28:42;;;;;;;2.78;1.92;;;20.90;99.90;;;20.95;100.00;97142.13;5032213;28;20025;-36
2023/08/19 00:31:08;;;;;;;3.65;2.10;;;20.90;99.90;;;20.94;100.00;97148.50;5028789;28;20078;-36
2023/08/19 00:33:34;;;;;;;3.00;2.00;;;20.90;99.90;;;20.90;100.00;97144.34;5031392;28;20505;-36
2023/08/19 00:36:02;;;;;;;4.05;2.33;;;20.80;99.90;;;20.86;100.00;97140.22;5031259;28;20033;-37
2023/08/19 00:38:28;;;;;;;2.38;1.98;;;20.80;99.90;;;20.81;100.00;97138.91;5029761;28;20049;-36
2023/08/19 00:40:54;;;;;;;3.58;2.05;;;20.70;99.90;;;20.75;100.00;97146.47;5031183;28;20078;-36
2023/08/19 00:43:19;;;;;;;2.88;2.10;;;20.70;99.90;;;20.70;100.00;97146.00;5031379;28;20056;-36
2023/08/19 00:45:48;;;;;;;3.95;1.98;;;20.60;99.90;;;20.69;100.00;97149.66;5030215;28;20086;-36
2023/08/19 00:48:16;;;;;;;3.83;2.00;;;20.60;99.90;;;20.73;100.00;97147.59;5028579;28;20075;-36
2023/08/19 00:50:43;;;;;;;2.70;2.20;;;20.70;99.90;;;20.77;100.00;97157.91;5031732;28;20731;-37
2023/08/19 00:53:10;;;;;;;3.85;2.35;;;20.70;99.90;;;20.81;100.00;97152.31;5027533;28;21749;-36
2023/08/19 00:55:36;;;;;;;2.78;2.10;;;20.70;99.90;;;20.81;100.00;97155.81;5032311;28;20060;-36
2023/08/19 00:58:07;;;;;;;3.55;2.20;;;20.70;99.90;;;20.83;100.00;97158.38;5030863;28;20049;-36
2023/08/19 01:00:34;;;;;;;3.08;2.50;;;20.70;99.90;;;20.81;100.00;97153.16;5038181;28;20029;-36
2023/08/19 01:03:00;;;;;;;5.07;1.98;;;20.70;99.90;;;20.79;100.00;97153.28;5041957;28;20032;-36
2023/08/19 01:06:02;;;;;;;2.88;2.17;;;20.80;99.90;;;20.76;100.00;97155.34;5042005;28;20029;-36
2023/08/19 01:08:48;;;;;;;3.33;2.23;;;20.70;99.90;;;20.79;100.00;97155.09;5038725;28;20477;-36
2023/08/19 01:11:47;;;;;;;4.15;2.20;;;20.70;99.90;;;20.75;100.00;97148.31;5039685;28;20029;-36
2023/08/19 01:14:28;;;;;;;2.10;1.65;;;20.70;99.90;;;20.67;100.00;97135.53;5036646;28;20413;-37
2023/08/19 01:16:54;;;;;;;2.38;2.00;;;20.60;99.90;;;20.70;100.00;97140.63;5033094;28;20025;-37
2023/08/19 01:19:29;;;;;;;4.65;2.33;;;20.60;99.90;;;20.70;100.00;97135.28;5035947;28;20436;-36
2023/08/19 01:22:02;;;;;;;2.90;2.03;;;20.60;99.90;;;20.69;100.00;97138.06;5037579;28;20032;-36
2023/08/19 01:24:35;;;;;;;2.35;1.90;;;20.60;99.90;;;20.65;100.00;97137.47;5034786;28;20028;-36
2023/08/19 01:27:08;;;;;;;4.65;2.00;;;20.60;99.90;;;20.62;100.00;97134.19;5038594;28;20029;-36
2023/08/19 01:29:34;;;;;;;2.70;1.95;;;20.50;99.90;;;20.53;100.00;97127.72;5037231;28;20124;-37
2023/08/19 01:32:00;;;;;;;2.85;2.10;;;20.50;99.90;;;20.47;100.00;97130.94;5032893;28;20026;-37
2023/08/19 01:34:25;;;;;;;1.88;1.65;;;20.40;99.90;;;20.34;100.00;97123.88;5033981;28;20068;-36
2023/08/19 01:37:01;;;;;;;4.78;2.22;;;20.30;99.90;;;20.25;100.00;97121.13;5035638;28;20063;-36
2023/08/19 01:39:28;;;;;;;3.35;2.03;;;20.30;99.90;;;20.24;100.00;97125.59;5027184;28;20035;-37
2023/08/19 01:41:55;;;;;;;4.32;2.30;;;20.20;99.90;;;20.18;100.00;97126.09;5037169;28;20066;-37
2023/08/19 01:44:21;;;;;;;3.53;2.20;;;20.10;99.90;;;20.11;100.00;97122.22;5041553;28;20044;-36
2023/08/19 01:46:47;;;;;;;3.05;2.30;;;20.10;99.90;;;20.07;100.00;97135.00;5037703;28;20033;-36
2023/08/19 01:49:12;;;;;;;7.03;2.40;;;20.10;99.90;;;20.07;100.00;97140.34;5034487;28;20037;-37
2023/08/19 01:51:38;;;;;;;2.92;2.33;;;20.00;99.90;;;20.03;100.00;97130.88;5035680;28;20439;-36
2023/08/19 01:54:04;;;;;;;3.45;2.20;;;20.00;99.90;;;20.00;100.00;97139.97;5039111;28;20037;-36
2023/08/19 01:56:30;;;;;;;3.67;2.40;;;19.90;99.90;;;19.94;100.00;97145.81;5035108;28;20493;-36
2023/08/19 01:58:56;;;;;;;3.38;2.38;;;19.90;99.90;;;19.90;100.00;97136.34;5034197;28;20025;-36
2023/08/19 02:01:22;;;;;;;5.00;2.30;;;19.80;99.90;;;19.88;100.00;97142.78;5035697;28;20737;-37
2023/08/19 02:03:48;;;;;;;3.33;2.38;;;19.80;99.90;;;19.73;100.00;97116.25;5036939;28;20120;-37
2023/08/19 02:06:13;;;;;;;3.05;2.13;;;19.80;99.90;;;19.94;100.00;97143.16;5036972;28;20041;-37
2023/08/19 02:08:39;;;;;;;4.00;2.50;;;19.90;99.90;;;19.96;100.00;97133.16;5035130;28;20041;-36
2023/08/19 02:11:05;;;;;;;3.40;2.33;;;19.90;99.90;;;19.94;100.00;97147.66;5036720;28;20529;-36
2023/08/19 02:13:30;;;;;;;3.97;2.30;;;19.90;99.90;;;19.90;100.00;97146.16;5038690;28;20123;-36
2023/08/19 02:15:56;;;;;;;4.90;2.15;;;19.80;99.90;;;19.85;100.00;97146.56;5038312;28;20223;-37
2023/08/19 02:18:22;;;;;;;4.00;2.10;;;19.80;99.90;;;19.81;100.00;97150.41;5037177;28;20029;-36
2023/08/19 02:20:48;;;;;;;4.82;2.20;;;19.80;99.90;;;19.74;100.00;97146.53;5035916;28;20068;-36
2023/08/19 02:23:14;;;;;;;3.28;2.50;;;19.70;99.90;;;19.74;100.00;97149.19;5014991;28;20548;-37
2023/08/19 02:25:39;;;;;;;2.95;1.85;;;19.70;99.90;;;19.71;100.00;97149.44;5036325;28;20035;-36
2023/08/19 02:28:05;;;;;;;3.28;2.35;;;19.70;99.90;;;19.67;100.00;97145.25;5034293;28;20037;-36
2023/08/19 02:30:33;;;;;;;2.67;2.13;;;19.70;99.90;;;19.71;100.00;97147.59;5034890;28;20052;-36
2023/08/19 02:33:06;;;;;;;3.65;2.50;;;19.70;99.90;;;19.72;100.00;97149.31;5038303;28;20036;-36
2023/08/19 02:35:32;;;;;;;3.72;2.55;;;19.70;99.90;;;19.70;100.00;97148.56;5028853;28;20220;-37
2023/08/19 02:37:58;;;;;;;3.85;2.30;;;19.70;99.90;;;19.68;100.00;97138.97;5027906;28;20040;-36
2023/08/19 02:40:23;;;;;;;3.53;2.40;;;19.70;99.90;;;19.67;100.00;97148.81;5028199;28;20052;-36
2023/08/19 02:42:49;;;;;;;3.45;2.53;;;19.70;99.90;;;19.68;100.00;97138.97;5027255;28;20047;-36
2023/08/19 02:45:15;;;;;;;5.47;2.40;;;19.60;99.90;;;19.65;100.00;97142.72;5027253;28;20037;-36
2023/08/19 02:47:40;;;;;;;5.13;2.25;;;19.60;99.90;;;19.60;100.00;97140.41;5029164;28;20103;-36
2023/08/19 02:50:07;;;;;;;3.53;2.55;;;19.60;99.90;;;19.58;100.00;97139.69;5027687;28;20446;-36
2023/08/19 02:52:32;;;;;;;4.68;2.60;;;19.60;99.90;;;19.60;100.00;97134.22;5027457;28;20037;-37
2023/08/19 02:54:58;;;;;;;4.05;2.63;;;19.60;99.90;;;19.60;100.00;97139.56;5032355;28;20024;-36
2023/08/19 02:57:24;;;;;;;3.63;2.63;;;19.60;99.90;;;19.60;100.00;97143.06;5028947;28;20489;-36
2023/08/19 02:59:49;;;;;;;3.80;2.60;;;19.60;99.90;;;19.58;100.00;97145.03;5031949;28;20029;-36
2023/08/19 03:02:15;;;;;;;4.07;2.53;;;19.60;99.90;;;19.55;100.00;97147.94;5037155;28;20285;-36
2023/08/19 03:04:41;;;;;;;6.22;2.78;;;19.50;99.90;;;19.47;100.00;97145.00;5038746;28;20059;-36
2023/08/19 03:07:07;;;;;;;3.53;2.95;;;19.50;99.90;;;19.44;100.00;97145.25;5036202;28;20025;-36
2023/08/19 03:09:33;;;;;;;5.43;2.53;;;19.40;99.90;;;19.44;100.00;97155.94;5030650;28;20064;-36
2023/08/19 03:11:58;;;;;;;3.35;2.60;;;19.40;99.90;;;19.38;100.00;97156.38;5041394;28;20021;-36
2023/08/19 03:14:24;;;;;;;5.72;2.80;;;19.40;99.90;;;19.37;100.00;97149.34;5042306;28;20506;-36
2023/08/19 03:16:50;;;;;;;5.05;2.60;;;19.30;99.90;;;19.31;100.00;97139.13;5039629;28;20029;-36
2023/08/19 03:19:15;;;;;;;3.05;2.58;;;19.30;99.90;;;19.35;100.00;97146.78;5033803;28;20028;-36
2023/08/19 03:21:41;;;;;;;3.17;2.60;;;19.30;99.90;;;19.35;100.00;97151.31;5040124;28;20048;-36
2023/08/19 03:24:07;;;;;;;3.95;2.60;;;19.30;99.90;;;19.34;100.00;97147.75;5036030;28;20029;-36
2023/08/19 03:26:33;;;;;;;2.60;2.30;;;19.30;99.90;;;19.37;100.00;97146.69;5041594;28;20650;-36
2023/08/19 03:28:59;;;;;;;2.67;2.40;;;19.30;99.90;;;19.39;100.00;97147.41;5033007;28;20474;-37
2023/08/19 03:31:25;;;;;;;3.75;2.35;;;19.40;99.90;;;19.38;100.00;97140.34;5037963;28;20416;-36
2023/08/19 03:33:53;;;;;;;3.03;2.40;;;19.40;99.90;;;19.34;100.00;97145.06;5032708;28;20059;-36
2023/08/19 03:36:18;;;;;;;4.00;2.65;;;19.30;99.90;;;19.30;100.00;97146.28;5041005;28;20481;-36
2023/08/19 03:38:44;;;;;;;3.67;2.80;;;19.30;99.90;;;19.25;100.00;97148.47;5034305;28;20277;-36
2023/08/19 03:41:10;;;;;;;5.35;3.08;;;19.30;99.90;;;19.21;100.00;97147.00;5036596;28;20056;-36
2023/08/19 03:43:35;;;;;;;3.38;2.40;;;19.20;99.90;;;19.17;100.00;97143.69;5040461;28;20036;-36
2023/08/19 03:46:01;;;;;;;4.47;2.80;;;19.20;99.90;;;19.15;100.00;97150.13;5036083;28;20366;-36
2023/08/19 03:48:27;;;;;;;4.22;2.45;;;19.10;99.90;;;19.10;100.00;97144.28;5039666;28;20492;-37
2023/08/19 03:50:53;;;;;;;4.30;2.40;;;19.10;99.90;;;19.07;100.00;97156.06;5031561;28;20037;-36
2023/08/19 03:53:18;;;;;;;6.18;2.50;;;19.10;99.90;;;19.05;100.00;97150.81;5038310;28;20033;-36
2023/08/19 03:55:48;;;;;;;3.33;2.50;;;19.10;99.90;;;19.03;100.00;97147.41;5035752;28;20021;-36
2023/08/19 03:58:13;;;;;;;3.10;2.67;;;19.00;99.90;;;19.01;100.00;97137.81;5041970;28;20534;-36
2023/08/19 04:00:39;;;;;;;3.05;2.22;;;19.00;99.90;;;18.97;100.00;97142.53;5030909;28;20338;-36
2023/08/19 04:03:05;;;;;;;3.65;2.70;;;19.00;99.90;;;18.96;100.00;97145.31;5039723;28;20032;-37
2023/08/19 04:05:30;;;;;;;3.95;2.63;;;18.90;99.90;;;18.93;100.00;97148.22;5039694;28;20476;-36
2023/08/19 04:07:56;;;;;;;4.57;2.80;;;18.90;99.90;;;18.89;100.00;97148.44;5044855;28;20044;-36
2023/08/19 04:10:22;;;;;;;3.55;2.47;;;18.90;99.90;;;18.89;100.00;97147.59;5036249;28;20044;-36
2023/08/19 04:12:48;;;;;;;3.95;2.40;;;18.90;99.90;;;18.88;100.00;97146.75;5038840;28;20037;-36
2023/08/19 04:15:13;;;;;;;6.40;2.65;;;18.90;99.90;;;18.87;100.00;97144.19;5035890;28;20705;-36
2023/08/19 04:17:39;;;;;;;5.13;2.40;;;18.90;99.90;;;18.83;100.00;97135.53;5038350;28;20050;-36
2023/08/19 04:20:09;;;;;;;3.55;2.53;;;18.90;99.90;;;18.79;100.00;97142.06;5039600;28;20051;-36
2023/08/19 04:22:37;;;;;;;4.47;2.70;;;18.90;99.90;;;18.86;100.00;97150.47;5034551;28;20149;-36
2023/08/19 04:25:03;;;;;;;4.90;2.40;;;18.90;99.90;;;18.87;100.00;97154.88;5033831;28;20025;-36
2023/08/19 04:27:31;;;;;;;5.38;2.80;;;18.90;99.90;;;18.88;100.00;97154.75;5038182;28;20440;-36
2023/08/19 04:29:56;;;;;;;3.55;2.45;;;18.90;99.90;;;18.91;100.00;97158.16;5035284;28;20040;-36
2023/08/19 04:32:22;;;;;;;3.67;2.60;;;18.90;99.90;;;18.92;100.00;97170.56;5029772;28;20393;-36
2023/08/19 04:34:48;;;;;;;4.13;2.75;;;18.90;99.90;;;18.92;100.00;97166.06;5032439;28;20032;-36
2023/08/19 04:37:14;;;;;;;3.58;2.58;;;18.90;99.90;;;18.94;100.00;97171.31;5047924;28;20029;-36
2023/08/19 04:39:39;;;;;;;5.07;2.60;;;18.90;99.90;;;18.84;100.00;97153.28;5030881;28;20036;-36
2023/08/19 04:42:05;;;;;;;2.85;2.45;;;19.00;99.90;;;18.97;100.00;97168.38;5032842;28;20497;-36
2023/08/19 04:44:31;;;;;;;4.75;2.50;;;18.90;99.90;;;18.97;100.00;97163.91;5030545;28;20186;-36
2023/08/19 04:46:57;;;;;;;5.72;2.85;;;19.00;99.90;;;18.98;100.00;97162.94;5030568;28;20466;-37
2023/08/19 04:49:23;;;;;;;3.65;2.38;;;19.10;99.90;;;19.07;100.00;97174.75;5028627;28;20037;-36
2023/08/19 04:51:48;;;;;;;4.15;2.28;;;19.00;99.90;;;19.10;100.00;97169.19;5027944;28;20025;-36
2023/08/19 04:54:14;;;;;;;3.38;2.33;;;19.10;99.90;;;19.14;100.00;97173.31;5030923;28;20375;-36
2023/08/19 04:56:40;;;;;;;5.90;2.65;;;19.10;99.90;;;19.17;100.00;97175.78;5031096;28;20025;-36
2023/08/19 04:59:05;;;;;;;6.88;2.80;;;19.20;99.90;;;19.18;100.00;97174.78;5032303;28;20083;-36
2023/08/19 05:01:32;;;;;;;5.10;2.60;;;19.20;99.90;;;18.98;100.00;97138.88;5030479;28;20029;-36
2023/08/19 05:03:57;;;;;;;4.20;2.40;;;19.20;99.90;;;19.22;100.00;97180.75;5034407;28;20217;-37
2023/08/19 05:06:23;;;;;;;4.88;2.72;;;19.20;99.90;;;19.24;100.00;97176.19;5030470;28;20028;-36
2023/08/19 05:08:49;;;;;;;5.45;2.53;;;19.20;99.90;;;19.27;100.00;97179.47;5022385;28;20061;-36
2023/08/19 05:11:14;;;;;;;6.05;2.67;;;19.20;99.90;;;19.31;100.00;97187.25;5029801;28;22871;-36
2023/08/19 05:13:40;;;;;;;4.25;2.53;;;19.30;99.90;;;19.30;100.00;97181.03;5030221;28;20090;-36
2023/08/19 05:16:06;;;;;;;3.15;2.58;;;19.30;99.90;;;19.40;100.00;97184.72;5029499;28;20025;-38
2023/08/19 05:18:31;;;;;;;4.18;2.90;;;19.40;99.90;;;19.47;100.00;97190.47;5029434;28;20083;-36
2023/08/19 05:20:57;;;;;;;4.72;2.65;;;19.50;99.90;;;19.55;100.00;97192.56;5030322;28;20052;-36
2023/08/19 05:23:23;;;;;;;3.65;2.70;;;19.50;99.90;;;19.53;100.00;97179.28;5031358;28;20110;-36
2023/08/19 05:25:48;;;;;;;4.72;2.70;;;19.60;99.90;;;19.66;100.00;97184.53;5030661;28;20075;-36
2023/08/19 05:28:14;;;;;;;4.50;2.67;;;19.60;99.90;;;19.75;100.00;97186.53;5031275;28;20345;-36
2023/08/19 05:30:40;;;;;;;4.60;2.65;;;19.70;99.90;;;19.83;100.00;97184.13;5026454;28;20029;-37
2023/08/19 05:33:05;;;;;;;5.18;2.75;;;19.80;99.90;;;19.90;100.00;97181.84;5027041;28;20364;-36
2023/08/19 05:35:31;;;;;;;4.68;2.70;;;19.90;99.90;;;19.95;100.00;97178.78;5031673;28;20361;-36
2023/08/19 05:37:57;;;;;;;5.80;2.35;;;19.90;99.90;;;20.06;100.00;97183.28;5028804;28;20135;-36
2023/08/19 05:40:23;;;;;;;4.53;2.50;;;20.00;99.90;;;20.14;100.00;97180.88;5034086;28;20568;-36
2023/08/19 05:42:48;;;;;;;3.88;2.75;;;20.10;99.90;;;20.24;100.00;97189.00;5025270;28;20476;-37
2023/08/19 05:45:15;;;;;;;5.28;2.40;;;20.20;99.90;;;20.29;100.00;97176.94;5034981;28;20029;-36
2023/08/19 05:47:41;;;;;;;4.43;2.83;;;20.30;99.90;;;20.38;100.00;97184.25;5035858;28;20036;-36
2023/08/19 05:50:07;;;;;;;3.67;2.63;;;20.40;99.90;;;20.54;100.00;97188.38;5027012;28;20029;-37
2023/08/19 05:52:33;;;;;;;4.38;2.78;;;20.50;99.90;;;20.63;100.00;97193.03;5030683;28;20040;-36
2023/08/19 05:54:59;;;;;;;5.55;2.60;;;20.60;99.90;;;20.73;100.00;97199.34;5030628;28;20387;-36
2023/08/19 05:57:24;;;;;;;5.10;2.75;;;20.70;99.90;;;20.79;100.00;97203.34;5029754;28;20033;-36
2023/08/19 05:59:50;;;;;;;6.18;2.80;;;20.80;99.90;;;20.92;100.00;97205.88;5029400;28;20131;-36
2023/08/19 06:02:16;;;;;;;5.85;2.50;;;20.90;99.90;;;21.00;100.00;97210.59;5028311;28;20017;-36
2023/08/19 06:04:43;;;;;;;3.75;2.70;;;21.00;99.90;;;21.09;100.00;97217.91;5029880;28;20045;-36
2023/08/19 06:07:09;;;;;;;4.13;2.85;;;21.10;99.90;;;21.16;100.00;97217.25;5041457;28;20044;-36
2023/08/19 06:09:34;;;;;;;4.15;2.75;;;21.20;99.90;;;21.26;100.00;97213.81;5042199;28;20020;-36
2023/08/19 06:12:00;;;;;;;3.75;2.20;;;21.20;99.90;;;21.32;100.00;97218.69;5035992;28;22975;-36
2023/08/19 06:14:26;;;;;;;8.15;2.80;;;21.30;99.90;;;21.42;100.00;97216.91;5041188;28;20036;-37
2023/08/19 06:16:52;;;;;;;4.35;3.00;;;21.40;99.90;;;21.46;100.00;97214.84;5027326;28;20021;-37
2023/08/19 06:19:17;;;;;;;6.00;2.80;;;21.50;99.90;;;21.59;100.00;97223.56;5035624;28;20078;-37
2023/08/19 06:21:43;;;;;;;5.82;3.05;;;21.60;99.90;;;21.68;100.00;97224.63;5041491;28;20466;-37
2023/08/19 06:24:09;;;;;;;4.53;2.85;;;21.60;99.90;;;21.77;100.00;97221.16;5048737;28;20078;-37
2023/08/19 06:26:35;;;;;;;3.88;2.78;;;21.70;99.90;;;21.90;100.00;97224.47;5042324;28;20033;-37
2023/08/19 06:29:00;;;;;;;4.82;2.80;;;21.90;99.90;;;21.99;100.00;97230.06;5043851;28;20032;-37
2023/08/19 06:31:26;;;;;;;7.68;3.28;;;22.00;99.90;;;22.10;100.00;97236.19;5049507;28;20031;-37
2023/08/19 06:33:54;;;;;;;4.85;2.80;;;22.10;99.90;;;22.18;100.00;97240.03;5045845;28;20041;-37
2023/08/19 06:36:29;;;;;;;9.10;3.17;;;22.20;99.90;;;22.26;100.00;97243.78;5043331;28;20029;-37
2023/08/19 06:39:07;;;;;;;7.95;3.30;;;22.20;99.90;;;22.33;100.00;97241.44;5043874;28;20116;-38
2023/08/19 06:41:41;;;;;;;4.95;2.80;;;22.30;99.90;;;22.48;100.00;97244.59;5037105;28;20162;-39
2023/08/19 06:44:08;;;;;;;5.28;3.05;;;22.40;99.90;;;22.56;100.00;97243.91;5040175;28;20116;-38
2023/08/19 06:46:35;;;;;;;5.28;2.90;;;22.50;99.90;;;22.65;100.00;97249.34;5043912;28;20182;-37
2023/08/19 06:49:01;;;;;;;11.07;3.17;;;22.60;99.90;;;22.81;100.00;97248.84;5040868;28;20043;-37
2023/08/19 06:51:29;;;;;;;4.63;3.15;;;22.80;99.90;;;22.92;100.00;97253.25;5044617;28;20504;-37
2023/08/19 06:53:55;;;;;;;6.25;2.40;;;22.90;99.90;;;23.06;100.00;97250.22;5041012;28;20499;-37
2023/08/19 06:56:47;;;;;;;3.53;2.70;;;23.00;99.90;;;23.21;100.00;97257.88;5044714;28;20524;-37
2023/08/19 06:59:38;;;;;;;6.20;2.83;;;23.10;99.90;;;23.35;100.00;97256.63;5048867;28;20385;-37
2023/08/19 07:02:05;;;;;;;9.07;3.13;;;23.30;99.90;;;23.50;100.00;97257.88;5043466;28;20060;-37
2023/08/19 07:04:33;;;;;;;6.40;3.17;;;23.50;99.90;;;23.59;100.00;97248.97;5039695;28;20055;-37
2023/08/19 07:07:03;;;;;;;5.13;2.80;;;23.60;99.90;;;23.84;100.00;97256.66;5042653;28;20036;-37
2023/08/19 07:09:30;;;;;;;6.88;3.00;;;23.80;99.90;;;24.09;100.00;97263.28;5042920;28;20036;-37
2023/08/19 07:11:58;;;;;;;4.05;2.90;;;23.90;99.90;;;24.30;98.59;97263.94;5040151;28;20029;-39
2023/08/19 07:14:25;;;;;;;3.38;2.60;;;24.20;99.90;;;24.50;96.76;97264.72;5041796;28;20091;-37
2023/08/19 07:16:53;;;;;;;6.25;3.00;;;24.30;99.90;;;24.68;93.40;97262.13;5039398;28;20029;-37
2023/08/19 07:19:26;;;;;;;4.70;3.00;;;24.50;99.90;;;24.89;91.50;97264.59;5040829;28;20100;-38
2023/08/19 07:21:54;;;;;;;6.20;3.30;;;24.70;99.90;;;25.04;92.61;97274.88;5040297;28;21752;-38
2023/08/19 07:24:21;;;;;;;3.65;2.90;;;24.80;99.90;;;25.07;89.69;97255.66;5040742;28;20396;-37
2023/08/19 07:26:48;;;;;;;7.70;3.28;;;25.00;99.90;;;25.27;88.36;97268.09;5038172;28;20492;-37
2023/08/19 07:29:14;;;;;;;6.55;3.58;;;25.10;99.90;;;25.29;86.41;97257.97;5043654;28;20442;-37
2023/08/19 07:31:41;;;;;;;7.75;2.92;;;25.20;99.90;;;25.44;85.69;97273.66;5039641;28;20036;-37
2023/08/19 07:34:07;;;;;;;6.80;3.20;;;25.20;99.90;;;25.47;84.31;97273.34;5042077;28;20556;-37
2023/08/19 07:36:34;;;;;;;4.78;3.00;;;25.40;99.90;;;25.63;80.39;97289.69;5042797;28;20431;-38
2023/08/19 07:39:00;;;;;;;7.07;3.17;;;25.40;99.90;;;25.79;81.75;97285.44;5039342;28;20029;-37
2023/08/19 07:41:26;;;;;;;7.57;3.30;;;25.60;99.90;;;25.91;77.76;97285.06;5037716;28;20044;-37
2023/08/19 07:43:51;;;;;;;3.45;2.85;;;25.70;99.90;;;26.00;76.10;97277.03;5040486;28;20044;-39
2023/08/19 07:46:17;;;;;;;7.07;3.13;;;25.80;99.90;;;26.19;79.39;97281.41;5043403;28;20036;-37
2023/08/19 07:48:46;;;;;;;5.60;3.40;;;26.00;99.90;;;26.37;75.78;97278.66;5042348;28;20037;-37
2023/08/19 07:51:12;;;;;;;7.82;3.15;;;26.10;99.90;;;26.53;72.59;97291.44;5043381;28;20041;-37
2023/08/19 07:53:39;;;;;;;7.38;3.22;;;26.20;99.90;;;26.63;69.80;97292.19;5037267;28;20033;-37
2023/08/19 07:56:08;;;;;;;5.05;3.05;;;26.40;99.90;;;26.77;67.82;97288.88;5042612;28;20021;-37
2023/08/19 07:58:36;;;;;;;10.00;2.97;;;26.50;99.90;;;26.94;68.81;97286.28;5043437;28;20021;-38
2023/08/19 08:01:02;;;;;;;7.47;3.22;;;26.70;99.90;;;27.12;68.89;97297.00;5043721;28;20140;-37
2023/08/19 08:03:28;;;;;;;8.18;3.28;;;26.90;99.90;;;27.23;66.60;97294.84;5045549;28;20499;-37
2023/08/19 08:05:54;;;;;;;6.93;3.15;;;27.00;99.90;;;27.35;64.45;97305.38;5043777;28;20036;-37
2023/08/19 08:08:19;;;;;;;6.68;3.40;;;27.00;99.90;;;27.41;61.50;97304.75;5045270;28;20370;-37
2023/08/19 08:10:45;;;;;;;7.03;3.58;;;27.10;99.90;;;27.47;59.47;97301.34;5045616;28;20031;-37
2023/08/19 08:13:11;;;;;;;4.80;3.13;;;27.20;99.90;;;27.54;66.67;97305.09;5051190;28;20025;-37
2023/08/19 08:15:37;;;;;;;9.63;3.72;;;27.30;99.90;;;27.64;79.96;97288.72;5047005;28;20025;-37
2023/08/19 08:18:03;;;;;;;5.30;3.65;;;27.30;99.90;;;27.73;69.39;97301.25;5043349;28;20036;-38
2023/08/19 08:20:29;;;;;;;5.40;3.42;;;27.40;99.90;;;27.78;69.74;97300.72;5046602;28;20373;-37
2023/08/19 08:22:54;;;;;;;6.60;3.53;;;27.40;99.90;;;27.86;67.67;97303.47;5044476;28;20028;-37
2023/08/19 08:25:20;;;;;;;9.73;3.80;;;27.50;99.90;;;27.93;68.40;97296.38;5045292;28;20079;-37
2023/08/19 08:27:46;;;;;;;6.93;3.33;;;27.60;99.90;;;27.99;68.88;97292.97;5041915;28;20043;-37
2023/08/19 08:30:12;;;;;;;6.65;3.70;;;27.70;99.90;;;28.08;65.17;97293.84;5043811;28;20025;-37
2023/08/19 08:32:37;;;;;;;6.57;3.47;;;27.70;99.90;;;28.12;64.71;97294.34;5048324;28;20053;-37
2023/08/19 08:35:04;;;;;;;6.30;3.80;;;27.80;99.90;;;28.25;70.45;97289.28;5043714;28;20493;-37
2023/08/19 08:37:29;;;;;;;5.57;3.20;;;27.90;99.90;;;28.34;59.44;97303.66;5046534;28;20017;-37
2023/08/19 08:39:55;;;;;;;5.28;3.05;;;28.00;99.90;;;28.41;59.43;97293.81;5041099;28;20397;-37
2023/08/19 08:42:23;;;;;;;6.40;3.10;;;28.10;99.90;;;28.47;56.41;97298.56;5041447;28;20032;-37
2023/08/19 08:44:50;;;;;;;7.60;3.35;;;28.20;99.90;;;28.46;54.78;97293.28;5044599;28;20052;-37
2023/08/19 08:47:19;;;;;;;7.80;3.17;;;28.20;99.90;;;28.52;53.78;97293.47;5044905;28;20032;-37
2023/08/19 08:49:47;;;;;;;6.32;3.17;;;28.20;99.90;;;28.63;52.42;97286.84;5039947;28;21443;-37
2023/08/19 08:52:13;;;;;;;7.07;3.40;;;28.30;99.90;;;28.80;61.99;97282.22;5045238;28;20489;-37
2023/08/19 08:54:41;;;;;;;5.13;3.08;;;28.50;99.90;;;28.92;51.10;97293.56;5038289;28;20040;-37
2023/08/19 08:57:07;;;;;;;5.95;3.30;;;28.60;99.50;;;29.05;51.46;97295.69;5042024;28;20028;-37
2023/08/19 08:59:33;;;;;;;4.97;2.90;;;28.70;99.30;;;29.11;49.43;97293.13;5044705;28;20029;-37
2023/08/19 09:02:00;;;;;;;13.90;3.33;;;28.80;99.60;;;29.06;48.82;97276.53;5043325;28;20463;-37
2023/08/19 09:04:28;;;;;;;4.97;3.50;;;28.80;98.30;;;29.21;49.57;97286.66;5042461;28;20025;-37
2023/08/19 09:07:04;;;;;;;4.80;3.17;;;28.90;98.20;;;29.35;49.04;97301.38;5041551;28;20495;-36
2023/08/19 09:09:34;;;;;;;7.60;3.20;;;29.00;98.70;;;29.38;48.96;97290.13;5042200;28;20025;-36
2023/08/19 09:12:01;;;;;;;7.85;3.10;;;29.00;97.80;;;29.50;51.06;97295.00;5049198;28;20562;-37
2023/08/19 09:14:41;;;;;;;4.07;3.45;;;29.20;98.70;;;29.57;49.78;97300.53;5043757;28;20106;-39
2023/08/19 09:17:08;;;;;;;6.35;2.95;;;29.20;97.40;;;29.65;48.69;97291.53;5043242;28;20033;-37
2023/08/19 09:19:35;;;;;;;6.97;3.67;;;29.30;97.30;;;29.66;45.64;97306.78;5046801;28;20107;-37
2023/08/19 09:22:15;;;;;;;4.95;2.85;;;29.40;95.60;;;29.66;45.17;97301.34;5039273;28;20029;-37
2023/08/19 09:24:41;;;;;;;5.57;3.47;;;29.30;95.50;;;29.75;51.62;97289.44;5044094;28;20095;-37
2023/08/19 09:27:06;;;;;;;6.15;3.47;;;29.40;96.00;;;29.71;47.43;97290.78;5041901;28;20033;-37
2023/08/19 09:29:33;;;;;;;5.68;3.33;;;29.40;96.30;;;29.80;46.82;97294.34;5043520;28;20029;-37
2023/08/19 09:32:00;;;;;;;10.27;3.55;;;29.40;96.10;;;29.76;46.11;97293.84;5044664;28;20035;-37
2023/08/19 09:34:26;;;;;;;5.15;3.20;;;29.40;95.90;;;29.77;47.09;97287.38;5042481;28;20028;-38
2023/08/19 09:37:02;;;;;;;5.72;3.10;;;29.40;95.70;;;29.81;46.88;97291.44;5041663;28;20057;-37
2023/08/19 09:39:34;;;;;;;5.60;3.47;;;29.50;95.90;;;29.85;46.82;97292.75;5042805;28;20388;-37
2023/08/19 09:42:00;;;;;;;7.15;3.60;;;29.50;95.90;;;29.97;46.25;97303.19;5043651;28;20112;-37
2023/08/19 09:44:30;;;;;;;5.65;3.35;;;29.60;95.10;;;30.05;45.06;97298.53;5044490;28;20492;-37
2023/08/19 09:46:56;;;;;;;4.38;2.90;;;29.70;94.60;;;30.08;45.22;97294.63;5041016;28;20029;-39
2023/08/19 09:49:23;;;;;;;4.75;3.08;;;29.80;94.50;;;30.18;46.05;97292.47;5043115;28;20082;-37
2023/08/19 09:51:56;;;;;;;10.25;3.80;;;29.80;94.80;;;30.22;44.84;97293.81;5043355;28;20389;-37
2023/08/19 09:54:23;;;;;;;6.35;3.20;;;29.90;94.30;;;30.29;44.65;97293.06;5041941;28;20089;-37
2023/08/19 09:56:57;;;;;;;9.25;3.53;;;29.90;94.00;;;30.34;44.87;97299.69;5042240;28;20154;-37
2023/08/19 09:59:26;;;;;;;6.55;3.33;;;30.00;93.80;;;30.36;46.13;97291.34;5044945;28;20067;-37
2023/08/19 10:01:53;;;;;;;7.97;3.22;;;30.00;93.40;;;30.48;44.13;97297.19;5041619;28;20021;-37
2023/08/19 10:04:19;;;;;;;6.43;3.60;;;30.10;92.70;;;30.58;45.46;97301.34;5042185;28;20090;-37
2023/08/19 10:06:51;;;;;;;5.55;3.40;;;30.20;93.30;;;30.71;43.09;97302.56;5038629;28;20036;-37
2023/08/19 10:09:23;;;;;;;;;;;30.30;92.80;;;30.74;43.97;97302.16;5042529;28;20087;-37
2023/08/19 10:11:53;;;;;;;6.70;3.47;;;30.40;93.40;;;30.75;42.46;97306.59;5040214;28;19916;-37
2023/08/19 10:14:30;;;;;;;6.55;3.50;;;30.40;92.10;;;30.67;44.45;97285.78;5044560;28;20558;-37
2023/08/19 10:17:07;;;;;;;6.60;3.40;;;30.40;92.70;;;30.84;45.02;97294.59;5034437;28;20411;-37